sensor_id;sensor_type;location;lat;lon;timestamp;P1;durP1;ratioP1;P2;durP2;ratioP2
7517;SDS011;3800;48.922;9.444;2024-03-17T00:01:48;8.20;;;7.40;;
7517;SDS011;3800;48.922;9.444;2024-03-17T00:04:16;8.23;;;7.20;;
7517;SDS011;3800;48.922;9.444;2024-03-17T00:06:45;25.13;;;6.33;;
7517;SDS011;3800;48.922;9.444;2024-03-17T00:09:14;86.17;;;7.87;;
7517;SDS011;3800;48.922;9.444;2024-03-17T00:11:43;5.40;;;4.90;;
7517;SDS011;3800;48.922;9.444;2024-03-17T00:14:12;5.60;;;4.77;;
7517;SDS011;3800;48.922;9.444;2024-03-17T00:16:40;30.50;;;6.00;;
7517;SDS011;3800;48.922;9.444;2024-03-17T00:19:09;88.53;;;7.93;;
7517;SDS011;3800;48.922;9.444;2024-03-17T00:21:37;5.63;;;5.13;;
7517;SDS011;3800;48.922;9.444;2024-03-17T00:24:05;70.43;;;8.00;;
7517;SDS011;3800;48.922;9.444;2024-03-17T00:26:34;29.93;;;5.87;;
7517;SDS011;3800;48.922;9.444;2024-03-17T00:29:02;53.07;;;6.63;;
7517;SDS011;3800;48.922;9.444;2024-03-17T00:31:31;24.80;;;6.13;;
7517;SDS011;3800;48.922;9.444;2024-03-17T00:34:00;153.50;;;10.63;;
7517;SDS011;3800;48.922;9.444;2024-03-17T00:36:29;66.23;;;7.40;;
7517;SDS011;3800;48.922;9.444;2024-03-17T00:38:58;6.23;;;5.57;;
7517;SDS011;3800;48.922;9.444;2024-03-17T00:41:26;47.37;;;6.67;;
7517;SDS011;3800;48.922;9.444;2024-03-17T00:43:54;14.30;;;5.93;;
7517;SDS011;3800;48.922;9.444;2024-03-17T00:46:22;16.37;;;5.60;;
7517;SDS011;3800;48.922;9.444;2024-03-17T00:48:52;26.37;;;6.20;;
7517;SDS011;3800;48.922;9.444;2024-03-17T00:51:20;6.00;;;5.50;;
7517;SDS011;3800;48.922;9.444;2024-03-17T00:53:49;92.17;;;8.90;;
7517;SDS011;3800;48.922;9.444;2024-03-17T00:56:18;32.93;;;6.43;;
7517;SDS011;3800;48.922;9.444;2024-03-17T00:58:46;14.37;;;6.00;;
7517;SDS011;3800;48.922;9.444;2024-03-17T01:01:15;22.07;;;5.60;;
7517;SDS011;3800;48.922;9.444;2024-03-17T01:03:44;6.67;;;5.30;;
7517;SDS011;3800;48.922;9.444;2024-03-17T01:06:12;25.33;;;5.60;;
7517;SDS011;3800;48.922;9.444;2024-03-17T01:08:40;13.13;;;5.07;;
7517;SDS011;3800;48.922;9.444;2024-03-17T01:11:13;49.60;;;6.53;;
7517;SDS011;3800;48.922;9.444;2024-03-17T01:13:38;30.77;;;6.03;;
7517;SDS011;3800;48.922;9.444;2024-03-17T01:16:07;5.83;;;5.33;;
7517;SDS011;3800;48.922;9.444;2024-03-17T01:18:35;31.53;;;6.67;;
7517;SDS011;3800;48.922;9.444;2024-03-17T01:21:03;18.17;;;5.17;;
7517;SDS011;3800;48.922;9.444;2024-03-17T01:23:33;18.30;;;5.97;;
7517;SDS011;3800;48.922;9.444;2024-03-17T01:26:01;12.97;;;4.77;;
7517;SDS011;3800;48.922;9.444;2024-03-17T01:28:29;13.40;;;5.60;;
7517;SDS011;3800;48.922;9.444;2024-03-17T01:30:59;31.87;;;5.60;;
7517;SDS011;3800;48.922;9.444;2024-03-17T01:33:27;6.07;;;5.00;;
7517;SDS011;3800;48.922;9.444;2024-03-17T01:35:55;7.87;;;5.07;;
7517;SDS011;3800;48.922;9.444;2024-03-17T01:38:24;6.17;;;5.27;;
7517;SDS011;3800;48.922;9.444;2024-03-17T01:40:52;37.73;;;7.03;;
7517;SDS011;3800;48.922;9.444;2024-03-17T01:43:21;6.87;;;5.90;;
7517;SDS011;3800;48.922;9.444;2024-03-17T01:45:50;71.97;;;8.20;;
7517;SDS011;3800;48.922;9.444;2024-03-17T01:48:19;6.40;;;5.80;;
7517;SDS011;3800;48.922;9.444;2024-03-17T01:50:48;6.37;;;5.70;;
7517;SDS011;3800;48.922;9.444;2024-03-17T01:53:15;50.40;;;9.77;;
7517;SDS011;3800;48.922;9.444;2024-03-17T01:55:44;63.00;;;7.40;;
7517;SDS011;3800;48.922;9.444;2024-03-17T01:58:12;101.90;;;8.73;;
7517;SDS011;3800;48.922;9.444;2024-03-17T02:00:41;40.00;;;6.37;;
7517;SDS011;3800;48.922;9.444;2024-03-17T02:03:09;71.80;;;7.33;;
7517;SDS011;3800;48.922;9.444;2024-03-17T02:05:38;5.57;;;5.07;;
7517;SDS011;3800;48.922;9.444;2024-03-17T02:08:07;6.07;;;5.50;;
7517;SDS011;3800;48.922;9.444;2024-03-17T02:10:35;20.90;;;5.60;;
7517;SDS011;3800;48.922;9.444;2024-03-17T02:13:04;38.83;;;6.13;;
7517;SDS011;3800;48.922;9.444;2024-03-17T02:15:33;6.63;;;4.97;;
7517;SDS011;3800;48.922;9.444;2024-03-17T02:18:01;6.60;;;4.63;;
7517;SDS011;3800;48.922;9.444;2024-03-17T02:20:30;13.40;;;5.07;;
7517;SDS011;3800;48.922;9.444;2024-03-17T02:23:04;13.20;;;5.03;;
7517;SDS011;3800;48.922;9.444;2024-03-17T02:25:33;7.23;;;4.83;;
7517;SDS011;3800;48.922;9.444;2024-03-17T02:28:02;9.27;;;5.13;;
7517;SDS011;3800;48.922;9.444;2024-03-17T02:30:30;7.53;;;4.87;;
7517;SDS011;3800;48.922;9.444;2024-03-17T02:32:59;19.17;;;5.07;;
7517;SDS011;3800;48.922;9.444;2024-03-17T02:35:28;5.30;;;4.80;;
7517;SDS011;3800;48.922;9.444;2024-03-17T02:37:56;4.73;;;4.33;;
7517;SDS011;3800;48.922;9.444;2024-03-17T02:40:24;7.17;;;4.80;;
7517;SDS011;3800;48.922;9.444;2024-03-17T02:42:53;4.60;;;4.23;;
7517;SDS011;3800;48.922;9.444;2024-03-17T02:45:21;5.00;;;3.90;;
7517;SDS011;3800;48.922;9.444;2024-03-17T02:47:50;17.90;;;4.73;;
7517;SDS011;3800;48.922;9.444;2024-03-17T02:50:18;94.30;;;7.67;;
7517;SDS011;3800;48.922;9.444;2024-03-17T02:52:47;20.23;;;4.80;;
7517;SDS011;3800;48.922;9.444;2024-03-17T02:55:16;80.53;;;7.37;;
7517;SDS011;3800;48.922;9.444;2024-03-17T02:57:45;86.97;;;7.73;;
7517;SDS011;3800;48.922;9.444;2024-03-17T03:00:13;20.33;;;5.10;;
7517;SDS011;3800;48.922;9.444;2024-03-17T03:02:42;7.17;;;4.77;;
7517;SDS011;3800;48.922;9.444;2024-03-17T03:05:10;58.10;;;5.87;;
7517;SDS011;3800;48.922;9.444;2024-03-17T03:07:38;15.57;;;4.70;;
7517;SDS011;3800;48.922;9.444;2024-03-17T03:10:07;35.00;;;5.33;;
7517;SDS011;3800;48.922;9.444;2024-03-17T03:12:36;5.00;;;4.60;;
7517;SDS011;3800;48.922;9.444;2024-03-17T03:15:04;37.07;;;5.50;;
7517;SDS011;3800;48.922;9.444;2024-03-17T03:17:34;6.97;;;4.23;;
7517;SDS011;3800;48.922;9.444;2024-03-17T03:20:02;13.03;;;4.90;;
7517;SDS011;3800;48.922;9.444;2024-03-17T03:22:31;14.37;;;4.90;;
7517;SDS011;3800;48.922;9.444;2024-03-17T03:25:00;35.00;;;5.77;;
7517;SDS011;3800;48.922;9.444;2024-03-17T03:27:29;21.53;;;5.83;;
7517;SDS011;3800;48.922;9.444;2024-03-17T03:29:57;25.20;;;5.83;;
7517;SDS011;3800;48.922;9.444;2024-03-17T03:32:25;37.63;;;6.10;;
7517;SDS011;3800;48.922;9.444;2024-03-17T03:34:53;5.20;;;4.70;;
7517;SDS011;3800;48.922;9.444;2024-03-17T03:37:22;6.00;;;5.40;;
7517;SDS011;3800;48.922;9.444;2024-03-17T03:39:50;18.50;;;5.27;;
7517;SDS011;3800;48.922;9.444;2024-03-17T03:42:19;12.20;;;5.13;;
7517;SDS011;3800;48.922;9.444;2024-03-17T03:44:48;13.20;;;5.57;;
7517;SDS011;3800;48.922;9.444;2024-03-17T03:47:16;6.20;;;5.50;;
7517;SDS011;3800;48.922;9.444;2024-03-17T03:49:45;5.53;;;5.03;;
7517;SDS011;3800;48.922;9.444;2024-03-17T03:52:13;5.20;;;4.73;;
7517;SDS011;3800;48.922;9.444;2024-03-17T03:54:41;5.50;;;5.00;;
7517;SDS011;3800;48.922;9.444;2024-03-17T03:57:10;5.87;;;4.83;;
7517;SDS011;3800;48.922;9.444;2024-03-17T03:59:39;11.93;;;4.90;;
7517;SDS011;3800;48.922;9.444;2024-03-17T04:02:07;8.90;;;5.20;;
7517;SDS011;3800;48.922;9.444;2024-03-17T04:04:36;13.60;;;5.20;;
7517;SDS011;3800;48.922;9.444;2024-03-17T04:07:05;11.07;;;5.30;;
7517;SDS011;3800;48.922;9.444;2024-03-17T04:09:33;6.30;;;5.43;;
7517;SDS011;3800;48.922;9.444;2024-03-17T04:12:03;22.40;;;5.77;;
7517;SDS011;3800;48.922;9.444;2024-03-17T04:14:31;7.53;;;4.80;;
7517;SDS011;3800;48.922;9.444;2024-03-17T04:16:59;21.13;;;5.30;;
7517;SDS011;3800;48.922;9.444;2024-03-17T04:19:28;10.30;;;5.10;;
7517;SDS011;3800;48.922;9.444;2024-03-17T04:21:56;5.20;;;4.70;;
7517;SDS011;3800;48.922;9.444;2024-03-17T04:24:26;9.40;;;5.40;;
7517;SDS011;3800;48.922;9.444;2024-03-17T04:26:54;6.00;;;4.50;;
7517;SDS011;3800;48.922;9.444;2024-03-17T04:29:23;5.90;;;4.27;;
7517;SDS011;3800;48.922;9.444;2024-03-17T04:31:51;4.60;;;4.20;;
7517;SDS011;3800;48.922;9.444;2024-03-17T04:34:20;13.20;;;4.20;;
7517;SDS011;3800;48.922;9.444;2024-03-17T04:36:48;4.40;;;4.00;;
7517;SDS011;3800;48.922;9.444;2024-03-17T04:39:16;4.30;;;3.90;;
7517;SDS011;3800;48.922;9.444;2024-03-17T04:41:45;4.10;;;3.80;;
7517;SDS011;3800;48.922;9.444;2024-03-17T04:44:13;3.90;;;3.60;;
7517;SDS011;3800;48.922;9.444;2024-03-17T04:46:42;4.50;;;4.10;;
7517;SDS011;3800;48.922;9.444;2024-03-17T04:49:11;6.10;;;4.20;;
7517;SDS011;3800;48.922;9.444;2024-03-17T04:51:39;5.40;;;3.87;;
7517;SDS011;3800;48.922;9.444;2024-03-17T04:54:07;4.03;;;3.73;;
7517;SDS011;3800;48.922;9.444;2024-03-17T04:56:36;4.00;;;3.70;;
7517;SDS011;3800;48.922;9.444;2024-03-17T04:59:04;5.00;;;4.60;;
7517;SDS011;3800;48.922;9.444;2024-03-17T05:01:32;4.47;;;4.07;;
7517;SDS011;3800;48.922;9.444;2024-03-17T05:04:02;5.33;;;4.80;;
7517;SDS011;3800;48.922;9.444;2024-03-17T05:06:31;5.60;;;5.00;;
7517;SDS011;3800;48.922;9.444;2024-03-17T05:08:59;5.10;;;4.60;;
7517;SDS011;3800;48.922;9.444;2024-03-17T05:11:28;5.00;;;4.40;;
7517;SDS011;3800;48.922;9.444;2024-03-17T05:13:57;4.93;;;4.43;;
7517;SDS011;3800;48.922;9.444;2024-03-17T05:16:25;4.63;;;4.20;;
7517;SDS011;3800;48.922;9.444;2024-03-17T05:18:53;5.97;;;4.57;;
7517;SDS011;3800;48.922;9.444;2024-03-17T05:21:22;5.40;;;4.50;;
7517;SDS011;3800;48.922;9.444;2024-03-17T05:23:50;4.93;;;4.43;;
7517;SDS011;3800;48.922;9.444;2024-03-17T05:26:19;4.47;;;4.07;;
7517;SDS011;3800;48.922;9.444;2024-03-17T05:28:48;10.67;;;4.10;;
7517;SDS011;3800;48.922;9.444;2024-03-17T05:31:16;18.07;;;3.93;;
7517;SDS011;3800;48.922;9.444;2024-03-17T05:33:44;3.80;;;3.20;;
7517;SDS011;3800;48.922;9.444;2024-03-17T05:36:13;9.40;;;3.70;;
7517;SDS011;3800;48.922;9.444;2024-03-17T05:38:41;7.53;;;4.10;;
7517;SDS011;3800;48.922;9.444;2024-03-17T05:41:10;5.17;;;3.47;;
7517;SDS011;3800;48.922;9.444;2024-03-17T05:43:38;3.17;;;2.97;;
7517;SDS011;3800;48.922;9.444;2024-03-17T05:46:08;4.50;;;3.10;;
7517;SDS011;3800;48.922;9.444;2024-03-17T05:48:38;8.80;;;3.00;;
7517;SDS011;3800;48.922;9.444;2024-03-17T05:51:09;3.20;;;3.00;;
7517;SDS011;3800;48.922;9.444;2024-03-17T05:53:38;9.53;;;3.53;;
7517;SDS011;3800;48.922;9.444;2024-03-17T05:56:06;6.00;;;3.10;;
7517;SDS011;3800;48.922;9.444;2024-03-17T05:58:35;5.10;;;2.93;;
7517;SDS011;3800;48.922;9.444;2024-03-17T06:01:03;3.80;;;2.80;;
7517;SDS011;3800;48.922;9.444;2024-03-17T06:03:32;3.00;;;2.80;;
7517;SDS011;3800;48.922;9.444;2024-03-17T06:06:00;9.73;;;2.80;;
7517;SDS011;3800;48.922;9.444;2024-03-17T06:08:28;21.13;;;3.63;;
7517;SDS011;3800;48.922;9.444;2024-03-17T06:10:56;15.87;;;3.57;;
7517;SDS011;3800;48.922;9.444;2024-03-17T06:13:25;6.67;;;2.90;;
7517;SDS011;3800;48.922;9.444;2024-03-17T06:15:54;3.17;;;2.80;;
7517;SDS011;3800;48.922;9.444;2024-03-17T06:18:22;3.13;;;2.93;;
7517;SDS011;3800;48.922;9.444;2024-03-17T06:20:50;3.43;;;3.13;;
7517;SDS011;3800;48.922;9.444;2024-03-17T06:23:20;3.80;;;3.10;;
7517;SDS011;3800;48.922;9.444;2024-03-17T06:25:48;3.40;;;3.10;;
7517;SDS011;3800;48.922;9.444;2024-03-17T06:28:17;4.67;;;3.63;;
7517;SDS011;3800;48.922;9.444;2024-03-17T06:30:45;3.40;;;3.20;;
7517;SDS011;3800;48.922;9.444;2024-03-17T06:33:16;9.90;;;3.57;;
7517;SDS011;3800;48.922;9.444;2024-03-17T06:35:42;5.87;;;3.43;;
7517;SDS011;3800;48.922;9.444;2024-03-17T06:38:11;9.87;;;4.33;;
7517;SDS011;3800;48.922;9.444;2024-03-17T06:40:40;9.10;;;3.60;;
7517;SDS011;3800;48.922;9.444;2024-03-17T06:43:09;5.40;;;3.40;;
7517;SDS011;3800;48.922;9.444;2024-03-17T06:45:37;4.23;;;3.50;;
7517;SDS011;3800;48.922;9.444;2024-03-17T06:48:06;12.80;;;4.00;;
7517;SDS011;3800;48.922;9.444;2024-03-17T06:50:34;4.27;;;3.87;;
7517;SDS011;3800;48.922;9.444;2024-03-17T06:53:03;6.90;;;4.13;;
7517;SDS011;3800;48.922;9.444;2024-03-17T06:55:31;4.77;;;4.23;;
7517;SDS011;3800;48.922;9.444;2024-03-17T06:58:01;5.90;;;4.30;;
7517;SDS011;3800;48.922;9.444;2024-03-17T07:00:29;20.63;;;5.10;;
7517;SDS011;3800;48.922;9.444;2024-03-17T07:02:57;5.23;;;4.03;;
7517;SDS011;3800;48.922;9.444;2024-03-17T07:05:25;8.97;;;4.33;;
7517;SDS011;3800;48.922;9.444;2024-03-17T07:07:54;5.73;;;4.27;;
7517;SDS011;3800;48.922;9.444;2024-03-17T07:10:23;4.27;;;3.87;;
7517;SDS011;3800;48.922;9.444;2024-03-17T07:12:52;4.47;;;4.07;;
7517;SDS011;3800;48.922;9.444;2024-03-17T07:15:20;4.60;;;4.20;;
7517;SDS011;3800;48.922;9.444;2024-03-17T07:17:49;5.17;;;4.67;;
7517;SDS011;3800;48.922;9.444;2024-03-17T07:20:16;5.97;;;5.37;;
7517;SDS011;3800;48.922;9.444;2024-03-17T07:22:45;7.43;;;6.23;;
7517;SDS011;3800;48.922;9.444;2024-03-17T07:25:14;6.27;;;5.67;;
7517;SDS011;3800;48.922;9.444;2024-03-17T07:27:42;6.77;;;6.07;;
7517;SDS011;3800;48.922;9.444;2024-03-17T07:30:10;7.00;;;6.27;;
7517;SDS011;3800;48.922;9.444;2024-03-17T07:32:38;8.37;;;6.67;;
7517;SDS011;3800;48.922;9.444;2024-03-17T07:35:08;9.77;;;7.50;;
7517;SDS011;3800;48.922;9.444;2024-03-17T07:37:36;11.03;;;8.30;;
7517;SDS011;3800;48.922;9.444;2024-03-17T07:40:05;9.13;;;7.60;;
7517;SDS011;3800;48.922;9.444;2024-03-17T07:42:34;8.77;;;7.87;;
7517;SDS011;3800;48.922;9.444;2024-03-17T07:45:03;10.27;;;8.40;;
7517;SDS011;3800;48.922;9.444;2024-03-17T07:47:31;10.97;;;8.47;;
7517;SDS011;3800;48.922;9.444;2024-03-17T07:49:59;10.57;;;8.23;;
7517;SDS011;3800;48.922;9.444;2024-03-17T07:52:29;10.27;;;8.33;;
7517;SDS011;3800;48.922;9.444;2024-03-17T07:54:58;13.50;;;9.33;;
7517;SDS011;3800;48.922;9.444;2024-03-17T07:57:26;11.23;;;8.90;;
7517;SDS011;3800;48.922;9.444;2024-03-17T07:59:54;13.77;;;9.20;;
7517;SDS011;3800;48.922;9.444;2024-03-17T08:02:22;14.67;;;9.87;;
7517;SDS011;3800;48.922;9.444;2024-03-17T08:04:51;15.37;;;11.23;;
7517;SDS011;3800;48.922;9.444;2024-03-17T08:07:19;15.43;;;11.37;;
7517;SDS011;3800;48.922;9.444;2024-03-17T08:09:47;15.97;;;12.57;;
7517;SDS011;3800;48.922;9.444;2024-03-17T08:12:16;17.97;;;12.50;;
7517;SDS011;3800;48.922;9.444;2024-03-17T08:14:45;17.50;;;12.90;;
7517;SDS011;3800;48.922;9.444;2024-03-17T08:17:13;18.53;;;14.33;;
7517;SDS011;3800;48.922;9.444;2024-03-17T08:19:41;17.67;;;14.10;;
7517;SDS011;3800;48.922;9.444;2024-03-17T08:22:12;18.40;;;13.13;;
7517;SDS011;3800;48.922;9.444;2024-03-17T08:24:40;14.70;;;12.10;;
7517;SDS011;3800;48.922;9.444;2024-03-17T08:27:09;17.17;;;13.20;;
7517;SDS011;3800;48.922;9.444;2024-03-17T08:29:37;17.17;;;12.97;;
7517;SDS011;3800;48.922;9.444;2024-03-17T08:32:05;15.30;;;12.17;;
7517;SDS011;3800;48.922;9.444;2024-03-17T08:34:34;14.03;;;11.87;;
7517;SDS011;3800;48.922;9.444;2024-03-17T08:37:03;14.40;;;12.20;;
7517;SDS011;3800;48.922;9.444;2024-03-17T08:39:32;15.07;;;12.70;;
7517;SDS011;3800;48.922;9.444;2024-03-17T08:42:00;13.60;;;12.20;;
7517;SDS011;3800;48.922;9.444;2024-03-17T08:44:29;13.97;;;12.40;;
7517;SDS011;3800;48.922;9.444;2024-03-17T08:46:59;14.63;;;11.27;;
7517;SDS011;3800;48.922;9.444;2024-03-17T08:49:28;12.40;;;11.13;;
7517;SDS011;3800;48.922;9.444;2024-03-17T08:51:56;12.13;;;10.93;;
7517;SDS011;3800;48.922;9.444;2024-03-17T08:54:25;12.13;;;10.93;;
7517;SDS011;3800;48.922;9.444;2024-03-17T08:56:54;12.43;;;11.13;;
7517;SDS011;3800;48.922;9.444;2024-03-17T08:59:22;11.43;;;10.13;;
7517;SDS011;3800;48.922;9.444;2024-03-17T09:01:51;11.93;;;10.73;;
7517;SDS011;3800;48.922;9.444;2024-03-17T09:04:19;12.17;;;10.80;;
7517;SDS011;3800;48.922;9.444;2024-03-17T09:06:48;11.07;;;9.87;;
7517;SDS011;3800;48.922;9.444;2024-03-17T09:09:16;10.73;;;9.60;;
7517;SDS011;3800;48.922;9.444;2024-03-17T09:11:44;10.93;;;9.83;;
7517;SDS011;3800;48.922;9.444;2024-03-17T09:14:15;11.37;;;10.27;;
7517;SDS011;3800;48.922;9.444;2024-03-17T09:16:43;11.00;;;9.90;;
7517;SDS011;3800;48.922;9.444;2024-03-17T09:19:11;11.03;;;9.57;;
7517;SDS011;3800;48.922;9.444;2024-03-17T09:21:40;10.03;;;8.83;;
7517;SDS011;3800;48.922;9.444;2024-03-17T09:24:08;10.53;;;9.40;;
7517;SDS011;3800;48.922;9.444;2024-03-17T09:26:36;10.27;;;9.17;;
7517;SDS011;3800;48.922;9.444;2024-03-17T09:29:05;10.17;;;9.17;;
7517;SDS011;3800;48.922;9.444;2024-03-17T09:31:35;10.37;;;9.37;;
7517;SDS011;3800;48.922;9.444;2024-03-17T09:34:04;9.47;;;8.57;;
7517;SDS011;3800;48.922;9.444;2024-03-17T09:36:32;9.47;;;8.57;;
7517;SDS011;3800;48.922;9.444;2024-03-17T09:39:00;8.30;;;7.50;;
7517;SDS011;3800;48.922;9.444;2024-03-17T09:41:29;9.20;;;7.87;;
7517;SDS011;3800;48.922;9.444;2024-03-17T09:43:58;9.77;;;6.97;;
7517;SDS011;3800;48.922;9.444;2024-03-17T09:46:27;8.37;;;6.80;;
7517;SDS011;3800;48.922;9.444;2024-03-17T09:48:55;7.23;;;6.53;;
7517;SDS011;3800;48.922;9.444;2024-03-17T09:51:25;6.53;;;5.83;;
7517;SDS011;3800;48.922;9.444;2024-03-17T09:53:52;7.23;;;6.53;;
7517;SDS011;3800;48.922;9.444;2024-03-17T09:56:21;7.03;;;5.33;;
7517;SDS011;3800;48.922;9.444;2024-03-17T09:58:50;7.00;;;5.77;;
7517;SDS011;3800;48.922;9.444;2024-03-17T10:01:18;7.93;;;5.17;;
7517;SDS011;3800;48.922;9.444;2024-03-17T10:03:47;6.23;;;5.63;;
7517;SDS011;3800;48.922;9.444;2024-03-17T10:06:19;6.40;;;5.80;;
7517;SDS011;3800;48.922;9.444;2024-03-17T10:08:48;9.23;;;6.00;;
7517;SDS011;3800;48.922;9.444;2024-03-17T10:11:18;6.30;;;5.47;;
7517;SDS011;3800;48.922;9.444;2024-03-17T10:13:46;6.03;;;5.33;;
7517;SDS011;3800;48.922;9.444;2024-03-17T10:16:31;6.03;;;4.93;;
7517;SDS011;3800;48.922;9.444;2024-03-17T10:21:48;6.03;;;5.43;;
7517;SDS011;3800;48.922;9.444;2024-03-17T10:24:20;7.10;;;5.50;;
7517;SDS011;3800;48.922;9.444;2024-03-17T10:26:51;5.73;;;5.20;;
7517;SDS011;3800;48.922;9.444;2024-03-17T10:29:20;6.13;;;5.50;;
7517;SDS011;3800;48.922;9.444;2024-03-17T10:31:48;6.90;;;5.70;;
7517;SDS011;3800;48.922;9.444;2024-03-17T10:34:16;6.07;;;5.17;;
7517;SDS011;3800;48.922;9.444;2024-03-17T10:36:47;7.57;;;5.07;;
7517;SDS011;3800;48.922;9.444;2024-03-17T10:39:19;5.67;;;5.07;;
7517;SDS011;3800;48.922;9.444;2024-03-17T10:41:56;5.33;;;4.87;;
7517;SDS011;3800;48.922;9.444;2024-03-17T10:44:26;7.20;;;5.40;;
7517;SDS011;3800;48.922;9.444;2024-03-17T10:46:55;5.60;;;5.10;;
7517;SDS011;3800;48.922;9.444;2024-03-17T10:49:23;5.20;;;4.30;;
7517;SDS011;3800;48.922;9.444;2024-03-17T10:51:53;5.50;;;5.00;;
7517;SDS011;3800;48.922;9.444;2024-03-17T10:54:25;5.17;;;4.57;;
7517;SDS011;3800;48.922;9.444;2024-03-17T10:56:54;6.03;;;4.40;;
7517;SDS011;3800;48.922;9.444;2024-03-17T10:59:35;5.47;;;4.77;;
7517;SDS011;3800;48.922;9.444;2024-03-17T11:02:16;4.90;;;3.93;;
7517;SDS011;3800;48.922;9.444;2024-03-17T11:04:48;7.57;;;4.50;;
7517;SDS011;3800;48.922;9.444;2024-03-17T11:07:19;5.20;;;4.70;;
7517;SDS011;3800;48.922;9.444;2024-03-17T11:09:48;4.17;;;3.80;;
7517;SDS011;3800;48.922;9.444;2024-03-17T11:15:36;5.13;;;4.63;;
7517;SDS011;3800;48.922;9.444;2024-03-17T11:21:01;4.63;;;4.23;;
7517;SDS011;3800;48.922;9.444;2024-03-17T11:23:42;6.33;;;5.03;;
7517;SDS011;3800;48.922;9.444;2024-03-17T11:26:11;4.83;;;4.17;;
7517;SDS011;3800;48.922;9.444;2024-03-17T11:33:59;5.20;;;4.03;;
7517;SDS011;3800;48.922;9.444;2024-03-17T11:36:36;5.10;;;4.30;;
7517;SDS011;3800;48.922;9.444;2024-03-17T11:39:06;5.07;;;3.60;;
7517;SDS011;3800;48.922;9.444;2024-03-17T11:41:42;4.27;;;3.87;;
7517;SDS011;3800;48.922;9.444;2024-03-17T11:44:16;3.90;;;3.50;;
7517;SDS011;3800;48.922;9.444;2024-03-17T11:49:29;5.53;;;4.07;;
7517;SDS011;3800;48.922;9.444;2024-03-17T11:52:01;3.90;;;3.60;;
7517;SDS011;3800;48.922;9.444;2024-03-17T11:54:30;3.73;;;3.43;;
7517;SDS011;3800;48.922;9.444;2024-03-17T11:57:01;5.30;;;4.00;;
7517;SDS011;3800;48.922;9.444;2024-03-17T11:59:30;3.97;;;3.57;;
7517;SDS011;3800;48.922;9.444;2024-03-17T12:01:58;5.77;;;4.30;;
7517;SDS011;3800;48.922;9.444;2024-03-17T12:04:26;4.83;;;4.20;;
7517;SDS011;3800;48.922;9.444;2024-03-17T12:06:55;5.90;;;4.33;;
7517;SDS011;3800;48.922;9.444;2024-03-17T12:09:24;4.93;;;3.80;;
7517;SDS011;3800;48.922;9.444;2024-03-17T12:12:00;5.53;;;3.73;;
7517;SDS011;3800;48.922;9.444;2024-03-17T12:14:30;4.57;;;3.53;;
7517;SDS011;3800;48.922;9.444;2024-03-17T12:17:01;5.10;;;3.67;;
7517;SDS011;3800;48.922;9.444;2024-03-17T12:19:28;7.60;;;5.10;;
7517;SDS011;3800;48.922;9.444;2024-03-17T12:21:58;17.43;;;9.30;;
7517;SDS011;3800;48.922;9.444;2024-03-17T12:24:27;8.83;;;5.90;;
7517;SDS011;3800;48.922;9.444;2024-03-17T12:26:56;7.93;;;5.43;;
7517;SDS011;3800;48.922;9.444;2024-03-17T12:29:26;7.00;;;4.83;;
7517;SDS011;3800;48.922;9.444;2024-03-17T12:32:00;16.40;;;11.20;;
7517;SDS011;3800;48.922;9.444;2024-03-17T12:34:30;10.17;;;5.83;;
7517;SDS011;3800;48.922;9.444;2024-03-17T12:36:58;5.37;;;4.17;;
7517;SDS011;3800;48.922;9.444;2024-03-17T12:39:28;13.63;;;9.40;;
7517;SDS011;3800;48.922;9.444;2024-03-17T12:44:36;4.40;;;3.63;;
7517;SDS011;3800;48.922;9.444;2024-03-17T12:47:05;5.00;;;4.00;;
7517;SDS011;3800;48.922;9.444;2024-03-17T12:49:34;4.20;;;3.40;;
7517;SDS011;3800;48.922;9.444;2024-03-17T12:52:02;3.80;;;3.47;;
7517;SDS011;3800;48.922;9.444;2024-03-17T12:54:30;4.80;;;3.50;;
7517;SDS011;3800;48.922;9.444;2024-03-17T12:57:04;3.90;;;3.30;;
7517;SDS011;3800;48.922;9.444;2024-03-17T12:59:38;3.60;;;3.10;;
7517;SDS011;3800;48.922;9.444;2024-03-17T13:02:13;21.77;;;14.20;;
7517;SDS011;3800;48.922;9.444;2024-03-17T13:04:42;5.13;;;4.10;;
7517;SDS011;3800;48.922;9.444;2024-03-17T13:07:11;14.50;;;9.43;;
7517;SDS011;3800;48.922;9.444;2024-03-17T13:09:39;5.87;;;5.13;;
7517;SDS011;3800;48.922;9.444;2024-03-17T13:12:13;20.07;;;13.73;;
7517;SDS011;3800;48.922;9.444;2024-03-17T13:14:53;14.20;;;9.20;;
7517;SDS011;3800;48.922;9.444;2024-03-17T13:17:21;38.20;;;23.13;;
7517;SDS011;3800;48.922;9.444;2024-03-17T13:19:50;45.43;;;25.60;;
7517;SDS011;3800;48.922;9.444;2024-03-17T13:22:19;14.77;;;11.10;;
7517;SDS011;3800;48.922;9.444;2024-03-17T13:24:48;4.63;;;4.17;;
7517;SDS011;3800;48.922;9.444;2024-03-17T13:27:16;5.43;;;3.80;;
7517;SDS011;3800;48.922;9.444;2024-03-17T13:29:48;5.80;;;3.97;;
7517;SDS011;3800;48.922;9.444;2024-03-17T13:32:16;3.97;;;3.33;;
7517;SDS011;3800;48.922;9.444;2024-03-17T13:34:44;4.73;;;3.90;;
7517;SDS011;3800;48.922;9.444;2024-03-17T13:37:14;4.93;;;3.73;;
7517;SDS011;3800;48.922;9.444;2024-03-17T13:39:42;5.23;;;3.80;;
7517;SDS011;3800;48.922;9.444;2024-03-17T13:42:11;7.17;;;6.10;;
7517;SDS011;3800;48.922;9.444;2024-03-17T13:44:40;4.27;;;3.47;;
7517;SDS011;3800;48.922;9.444;2024-03-17T13:47:08;4.73;;;3.77;;
7517;SDS011;3800;48.922;9.444;2024-03-17T13:49:36;3.97;;;3.50;;
7517;SDS011;3800;48.922;9.444;2024-03-17T13:52:07;6.57;;;4.10;;
7517;SDS011;3800;48.922;9.444;2024-03-17T13:54:35;6.87;;;5.87;;
7517;SDS011;3800;48.922;9.444;2024-03-17T13:57:05;6.63;;;4.67;;
7517;SDS011;3800;48.922;9.444;2024-03-17T13:59:33;8.03;;;5.90;;
7517;SDS011;3800;48.922;9.444;2024-03-17T14:02:02;6.10;;;4.73;;
7517;SDS011;3800;48.922;9.444;2024-03-17T14:04:32;4.13;;;3.43;;
7517;SDS011;3800;48.922;9.444;2024-03-17T14:07:02;4.97;;;3.50;;
7517;SDS011;3800;48.922;9.444;2024-03-17T14:09:31;4.10;;;3.40;;
7517;SDS011;3800;48.922;9.444;2024-03-17T14:11:59;3.90;;;3.00;;
7517;SDS011;3800;48.922;9.444;2024-03-17T14:14:27;4.13;;;3.23;;
7517;SDS011;3800;48.922;9.444;2024-03-17T14:16:55;4.57;;;3.40;;
7517;SDS011;3800;48.922;9.444;2024-03-17T14:19:24;7.00;;;5.63;;
7517;SDS011;3800;48.922;9.444;2024-03-17T14:21:52;4.67;;;4.27;;
7517;SDS011;3800;48.922;9.444;2024-03-17T14:24:22;4.00;;;3.50;;
7517;SDS011;3800;48.922;9.444;2024-03-17T14:26:51;3.90;;;3.50;;
7517;SDS011;3800;48.922;9.444;2024-03-17T14:29:19;4.53;;;3.97;;
7517;SDS011;3800;48.922;9.444;2024-03-17T14:31:47;3.90;;;3.30;;
7517;SDS011;3800;48.922;9.444;2024-03-17T14:34:16;4.00;;;3.40;;
7517;SDS011;3800;48.922;9.444;2024-03-17T14:36:45;3.40;;;2.90;;
7517;SDS011;3800;48.922;9.444;2024-03-17T14:39:14;4.13;;;3.10;;
7517;SDS011;3800;48.922;9.444;2024-03-17T14:41:42;3.77;;;3.40;;
7517;SDS011;3800;48.922;9.444;2024-03-17T14:44:10;4.53;;;3.50;;
7517;SDS011;3800;48.922;9.444;2024-03-17T14:46:39;5.17;;;3.70;;
7517;SDS011;3800;48.922;9.444;2024-03-17T14:49:07;4.43;;;3.33;;
7517;SDS011;3800;48.922;9.444;2024-03-17T14:51:36;4.20;;;3.40;;
7517;SDS011;3800;48.922;9.444;2024-03-17T14:54:05;4.47;;;3.27;;
7517;SDS011;3800;48.922;9.444;2024-03-17T14:56:33;3.93;;;3.17;;
7517;SDS011;3800;48.922;9.444;2024-03-17T14:59:02;4.40;;;3.10;;
7517;SDS011;3800;48.922;9.444;2024-03-17T15:01:31;4.10;;;2.70;;
7517;SDS011;3800;48.922;9.444;2024-03-17T15:03:59;3.60;;;3.17;;
7517;SDS011;3800;48.922;9.444;2024-03-17T15:06:27;3.23;;;2.90;;
7517;SDS011;3800;48.922;9.444;2024-03-17T15:08:56;3.97;;;3.30;;
7517;SDS011;3800;48.922;9.444;2024-03-17T15:11:25;4.67;;;2.80;;
7517;SDS011;3800;48.922;9.444;2024-03-17T15:13:54;4.70;;;3.10;;
7517;SDS011;3800;48.922;9.444;2024-03-17T15:16:23;3.57;;;3.13;;
7517;SDS011;3800;48.922;9.444;2024-03-17T15:18:52;3.53;;;3.10;;
7517;SDS011;3800;48.922;9.444;2024-03-17T15:21:21;3.33;;;2.90;;
7517;SDS011;3800;48.922;9.444;2024-03-17T15:23:49;3.50;;;3.17;;
7517;SDS011;3800;48.922;9.444;2024-03-17T15:26:17;3.53;;;3.13;;
7517;SDS011;3800;48.922;9.444;2024-03-17T15:28:45;4.23;;;3.20;;
7517;SDS011;3800;48.922;9.444;2024-03-17T15:31:15;4.50;;;3.10;;
7517;SDS011;3800;48.922;9.444;2024-03-17T15:33:43;3.53;;;2.93;;
7517;SDS011;3800;48.922;9.444;2024-03-17T15:36:13;4.13;;;3.47;;
7517;SDS011;3800;48.922;9.444;2024-03-17T15:38:42;5.53;;;3.37;;
7517;SDS011;3800;48.922;9.444;2024-03-17T15:41:11;3.30;;;2.77;;